sensor_id;sensor_type;location;lat;lon;timestamp;P1;durP1;ratioP1;P2;durP2;ratioP2
78732;SDS011;68056;52.530;5.454;2024-01-27T00:04:08;4.00;;;1.30;;
78732;SDS011;68056;52.530;5.454;2024-01-27T00:06:33;7.20;;;1.60;;
78732;SDS011;68056;52.530;5.454;2024-01-27T00:08:59;9.30;;;1.63;;
78732;SDS011;68056;52.530;5.454;2024-01-27T00:11:25;6.90;;;1.88;;
78732;SDS011;68056;52.530;5.454;2024-01-27T00:13:50;3.90;;;1.05;;
78732;SDS011;68056;52.530;5.454;2024-01-27T00:16:16;4.07;;;0.98;;
78732;SDS011;68056;52.530;5.454;2024-01-27T00:18:42;9.05;;;1.63;;
78732;SDS011;68056;52.530;5.454;2024-01-27T00:21:07;5.63;;;1.33;;
78732;SDS011;68056;52.530;5.454;2024-01-27T00:23:33;5.95;;;1.67;;
78732;SDS011;68056;52.530;5.454;2024-01-27T00:25:59;4.68;;;1.15;;
78732;SDS011;68056;52.530;5.454;2024-01-27T00:28:28;6.18;;;1.02;;
78732;SDS011;68056;52.530;5.454;2024-01-27T00:30:54;4.78;;;1.50;;
78732;SDS011;68056;52.530;5.454;2024-01-27T00:33:20;4.55;;;1.35;;
78732;SDS011;68056;52.530;5.454;2024-01-27T00:35:46;7.82;;;1.13;;
78732;SDS011;68056;52.530;5.454;2024-01-27T00:38:12;2.50;;;1.25;;
78732;SDS011;68056;52.530;5.454;2024-01-27T00:40:37;8.15;;;0.95;;
78732;SDS011;68056;52.530;5.454;2024-01-27T00:43:03;5.93;;;1.50;;
78732;SDS011;68056;52.530;5.454;2024-01-27T00:45:28;8.00;;;1.20;;
78732;SDS011;68056;52.530;5.454;2024-01-27T00:47:55;5.05;;;1.52;;
78732;SDS011;68056;52.530;5.454;2024-01-27T00:50:21;6.00;;;1.38;;
78732;SDS011;68056;52.530;5.454;2024-01-27T00:52:47;6.00;;;1.70;;
78732;SDS011;68056;52.530;5.454;2024-01-27T00:55:12;4.13;;;1.58;;
78732;SDS011;68056;52.530;5.454;2024-01-27T00:57:38;2.30;;;1.02;;
78732;SDS011;68056;52.530;5.454;2024-01-27T01:00:04;4.15;;;1.05;;
78732;SDS011;68056;52.530;5.454;2024-01-27T01:02:31;5.78;;;0.90;;
78732;SDS011;68056;52.530;5.454;2024-01-27T01:04:57;7.93;;;1.52;;
78732;SDS011;68056;52.530;5.454;2024-01-27T01:07:23;9.38;;;2.03;;
78732;SDS011;68056;52.530;5.454;2024-01-27T01:09:48;5.82;;;1.35;;
78732;SDS011;68056;52.530;5.454;2024-01-27T01:12:14;2.90;;;1.40;;
78732;SDS011;68056;52.530;5.454;2024-01-27T01:14:40;6.53;;;1.52;;
78732;SDS011;68056;52.530;5.454;2024-01-27T01:17:06;14.07;;;2.17;;
78732;SDS011;68056;52.530;5.454;2024-01-27T01:19:32;8.60;;;1.65;;
78732;SDS011;68056;52.530;5.454;2024-01-27T01:22:00;5.75;;;1.17;;
78732;SDS011;68056;52.530;5.454;2024-01-27T01:24:26;3.78;;;1.08;;
78732;SDS011;68056;52.530;5.454;2024-01-27T01:26:52;5.90;;;1.55;;
78732;SDS011;68056;52.530;5.454;2024-01-27T01:29:17;5.47;;;1.45;;
78732;SDS011;68056;52.530;5.454;2024-01-27T01:31:43;4.55;;;1.35;;
78732;SDS011;68056;52.530;5.454;2024-01-27T01:34:08;6.97;;;1.60;;
78732;SDS011;68056;52.530;5.454;2024-01-27T01:36:34;6.28;;;1.40;;
78732;SDS011;68056;52.530;5.454;2024-01-27T01:38:59;7.32;;;1.50;;
78732;SDS011;68056;52.530;5.454;2024-01-27T01:41:25;6.03;;;1.52;;
78732;SDS011;68056;52.530;5.454;2024-01-27T01:43:50;9.50;;;1.67;;
78732;SDS011;68056;52.530;5.454;2024-01-27T01:46:16;3.75;;;1.10;;
78732;SDS011;68056;52.530;5.454;2024-01-27T01:48:42;4.63;;;1.33;;
78732;SDS011;68056;52.530;5.454;2024-01-27T01:51:08;7.60;;;1.60;;
78732;SDS011;68056;52.530;5.454;2024-01-27T01:53:34;6.70;;;1.27;;
78732;SDS011;68056;52.530;5.454;2024-01-27T01:56:00;8.50;;;1.52;;
78732;SDS011;68056;52.530;5.454;2024-01-27T01:58:26;6.03;;;1.67;;
78732;SDS011;68056;52.530;5.454;2024-01-27T02:00:58;4.10;;;1.35;;
78732;SDS011;68056;52.530;5.454;2024-01-27T02:03:25;3.58;;;1.13;;
78732;SDS011;68056;52.530;5.454;2024-01-27T02:05:50;4.40;;;1.38;;
78732;SDS011;68056;52.530;5.454;2024-01-27T02:08:16;5.40;;;1.00;;
78732;SDS011;68056;52.530;5.454;2024-01-27T02:10:42;5.30;;;1.45;;
78732;SDS011;68056;52.530;5.454;2024-01-27T02:13:20;5.60;;;1.95;;
78732;SDS011;68056;52.530;5.454;2024-01-27T02:15:47;6.13;;;1.88;;
78732;SDS011;68056;52.530;5.454;2024-01-27T02:18:14;6.55;;;1.55;;
78732;SDS011;68056;52.530;5.454;2024-01-27T02:20:40;2.75;;;1.05;;
78732;SDS011;68056;52.530;5.454;2024-01-27T02:23:05;5.45;;;1.33;;
78732;SDS011;68056;52.530;5.454;2024-01-27T02:25:32;5.63;;;2.33;;
78732;SDS011;68056;52.530;5.454;2024-01-27T02:27:58;7.55;;;1.88;;
78732;SDS011;68056;52.530;5.454;2024-01-27T02:30:24;5.72;;;1.50;;
78732;SDS011;68056;52.530;5.454;2024-01-27T02:32:50;5.82;;;1.70;;
78732;SDS011;68056;52.530;5.454;2024-01-27T02:35:16;5.22;;;1.27;;
78732;SDS011;68056;52.530;5.454;2024-01-27T02:37:42;4.28;;;1.02;;
78732;SDS011;68056;52.530;5.454;2024-01-27T02:40:08;2.92;;;1.10;;
78732;SDS011;68056;52.530;5.454;2024-01-27T02:42:37;5.10;;;1.58;;
78732;SDS011;68056;52.530;5.454;2024-01-27T02:45:03;6.72;;;1.55;;
78732;SDS011;68056;52.530;5.454;2024-01-27T02:47:31;2.45;;;1.15;;
78732;SDS011;68056;52.530;5.454;2024-01-27T02:49:57;10.18;;;1.08;;
78732;SDS011;68056;52.530;5.454;2024-01-27T02:52:23;3.70;;;1.40;;
78732;SDS011;68056;52.530;5.454;2024-01-27T02:54:48;8.73;;;1.40;;
78732;SDS011;68056;52.530;5.454;2024-01-27T02:57:14;5.53;;;1.38;;
78732;SDS011;68056;52.530;5.454;2024-01-27T02:59:44;3.72;;;1.15;;
78732;SDS011;68056;52.530;5.454;2024-01-27T03:02:13;3.72;;;1.67;;
78732;SDS011;68056;52.530;5.454;2024-01-27T03:04:38;5.28;;;1.70;;
78732;SDS011;68056;52.530;5.454;2024-01-27T03:07:04;4.22;;;1.77;;
78732;SDS011;68056;52.530;5.454;2024-01-27T03:09:30;4.60;;;1.55;;
78732;SDS011;68056;52.530;5.454;2024-01-27T03:11:57;6.55;;;1.17;;
78732;SDS011;68056;52.530;5.454;2024-01-27T03:14:22;5.43;;;1.23;;
78732;SDS011;68056;52.530;5.454;2024-01-27T03:16:48;6.13;;;1.52;;
78732;SDS011;68056;52.530;5.454;2024-01-27T03:19:13;4.80;;;1.92;;
78732;SDS011;68056;52.530;5.454;2024-01-27T03:21:39;8.43;;;1.85;;
78732;SDS011;68056;52.530;5.454;2024-01-27T03:24:04;3.22;;;1.15;;
78732;SDS011;68056;52.530;5.454;2024-01-27T03:26:30;5.25;;;1.38;;
78732;SDS011;68056;52.530;5.454;2024-01-27T03:28:56;6.80;;;1.33;;
78732;SDS011;68056;52.530;5.454;2024-01-27T03:31:21;7.63;;;2.20;;
78732;SDS011;68056;52.530;5.454;2024-01-27T03:33:47;4.72;;;1.48;;
78732;SDS011;68056;52.530;5.454;2024-01-27T03:36:13;6.03;;;1.45;;
78732;SDS011;68056;52.530;5.454;2024-01-27T03:38:41;4.32;;;1.00;;
78732;SDS011;68056;52.530;5.454;2024-01-27T03:41:07;3.60;;;0.90;;
78732;SDS011;68056;52.530;5.454;2024-01-27T03:43:36;6.90;;;1.23;;
78732;SDS011;68056;52.530;5.454;2024-01-27T03:46:01;6.65;;;1.23;;
78732;SDS011;68056;52.530;5.454;2024-01-27T03:48:28;5.82;;;1.58;;
78732;SDS011;68056;52.530;5.454;2024-01-27T03:50:53;5.28;;;1.83;;
78732;SDS011;68056;52.530;5.454;2024-01-27T03:53:19;7.72;;;1.42;;
78732;SDS011;68056;52.530;5.454;2024-01-27T03:55:44;8.98;;;1.65;;
78732;SDS011;68056;52.530;5.454;2024-01-27T03:58:10;5.38;;;1.30;;
78732;SDS011;68056;52.530;5.454;2024-01-27T04:00:36;5.00;;;1.50;;
78732;SDS011;68056;52.530;5.454;2024-01-27T04:03:01;5.32;;;1.17;;
78732;SDS011;68056;52.530;5.454;2024-01-27T04:05:30;5.47;;;2.17;;
78732;SDS011;68056;52.530;5.454;2024-01-27T04:07:56;8.88;;;2.13;;
78732;SDS011;68056;52.530;5.454;2024-01-27T04:10:22;6.28;;;1.42;;
78732;SDS011;68056;52.530;5.454;2024-01-27T04:12:48;8.38;;;1.88;;
78732;SDS011;68056;52.530;5.454;2024-01-27T04:15:14;4.45;;;1.90;;
78732;SDS011;68056;52.530;5.454;2024-01-27T04:17:40;10.05;;;1.92;;
78732;SDS011;68056;52.530;5.454;2024-01-27T04:20:06;5.50;;;1.23;;
78732;SDS011;68056;52.530;5.454;2024-01-27T04:22:33;9.80;;;1.83;;
78732;SDS011;68056;52.530;5.454;2024-01-27T04:24:59;9.25;;;1.52;;
78732;SDS011;68056;52.530;5.454;2024-01-27T04:27:28;3.63;;;1.13;;
78732;SDS011;68056;52.530;5.454;2024-01-27T04:29:53;6.78;;;2.13;;
78732;SDS011;68056;52.530;5.454;2024-01-27T04:32:19;7.05;;;1.08;;
78732;SDS011;68056;52.530;5.454;2024-01-27T04:34:46;8.52;;;1.70;;
78732;SDS011;68056;52.530;5.454;2024-01-27T04:37:12;5.75;;;1.85;;
78732;SDS011;68056;52.530;5.454;2024-01-27T04:39:37;4.38;;;1.55;;
78732;SDS011;68056;52.530;5.454;2024-01-27T04:42:03;8.55;;;1.85;;
78732;SDS011;68056;52.530;5.454;2024-01-27T04:44:31;7.25;;;1.67;;
78732;SDS011;68056;52.530;5.454;2024-01-27T04:46:56;3.67;;;1.58;;
78732;SDS011;68056;52.530;5.454;2024-01-27T04:49:22;7.18;;;1.92;;
78732;SDS011;68056;52.530;5.454;2024-01-27T04:51:48;4.68;;;1.70;;
78732;SDS011;68056;52.530;5.454;2024-01-27T04:54:13;5.00;;;1.60;;
78732;SDS011;68056;52.530;5.454;2024-01-27T04:56:39;7.68;;;1.63;;
78732;SDS011;68056;52.530;5.454;2024-01-27T04:59:04;3.33;;;1.67;;
78732;SDS011;68056;52.530;5.454;2024-01-27T05:01:30;6.32;;;1.92;;
78732;SDS011;68056;52.530;5.454;2024-01-27T05:03:56;6.60;;;1.63;;
78732;SDS011;68056;52.530;5.454;2024-01-27T05:06:22;7.43;;;1.80;;
78732;SDS011;68056;52.530;5.454;2024-01-27T05:08:47;6.95;;;2.30;;
78732;SDS011;68056;52.530;5.454;2024-01-27T05:11:13;7.10;;;2.00;;
78732;SDS011;68056;52.530;5.454;2024-01-27T05:13:39;5.38;;;1.75;;
78732;SDS011;68056;52.530;5.454;2024-01-27T05:16:05;5.10;;;2.10;;
78732;SDS011;68056;52.530;5.454;2024-01-27T05:18:31;6.90;;;1.75;;
78732;SDS011;68056;52.530;5.454;2024-01-27T05:20:56;5.05;;;1.83;;
78732;SDS011;68056;52.530;5.454;2024-01-27T05:23:22;5.28;;;2.38;;
78732;SDS011;68056;52.530;5.454;2024-01-27T05:25:48;5.90;;;2.22;;
78732;SDS011;68056;52.530;5.454;2024-01-27T05:28:14;8.05;;;1.58;;
78732;SDS011;68056;52.530;5.454;2024-01-27T05:30:39;5.10;;;1.63;;
78732;SDS011;68056;52.530;5.454;2024-01-27T05:33:05;8.77;;;1.52;;
78732;SDS011;68056;52.530;5.454;2024-01-27T05:35:30;6.50;;;1.63;;
78732;SDS011;68056;52.530;5.454;2024-01-27T05:37:56;5.53;;;1.65;;
78732;SDS011;68056;52.530;5.454;2024-01-27T05:40:22;8.13;;;1.67;;
78732;SDS011;68056;52.530;5.454;2024-01-27T05:42:47;5.43;;;1.48;;
78732;SDS011;68056;52.530;5.454;2024-01-27T05:45:14;7.07;;;2.00;;
78732;SDS011;68056;52.530;5.454;2024-01-27T05:47:40;3.65;;;1.30;;
78732;SDS011;68056;52.530;5.454;2024-01-27T05:50:06;4.40;;;1.75;;
78732;SDS011;68056;52.530;5.454;2024-01-27T05:52:33;6.88;;;2.08;;
78732;SDS011;68056;52.530;5.454;2024-01-27T05:54:59;4.78;;;1.45;;
78732;SDS011;68056;52.530;5.454;2024-01-27T05:57:26;4.75;;;1.60;;
78732;SDS011;68056;52.530;5.454;2024-01-27T05:59:51;6.80;;;1.90;;
78732;SDS011;68056;52.530;5.454;2024-01-27T06:02:17;5.13;;;1.42;;
78732;SDS011;68056;52.530;5.454;2024-01-27T06:04:43;4.72;;;1.48;;
78732;SDS011;68056;52.530;5.454;2024-01-27T06:07:11;7.72;;;1.80;;
78732;SDS011;68056;52.530;5.454;2024-01-27T06:09:37;7.65;;;1.85;;
78732;SDS011;68056;52.530;5.454;2024-01-27T06:12:20;3.53;;;1.38;;
78732;SDS011;68056;52.530;5.454;2024-01-27T06:14:45;8.35;;;2.00;;
78732;SDS011;68056;52.530;5.454;2024-01-27T06:17:11;7.10;;;1.70;;
78732;SDS011;68056;52.530;5.454;2024-01-27T06:19:39;5.40;;;2.20;;
78732;SDS011;68056;52.530;5.454;2024-01-27T06:22:05;7.20;;;1.50;;
78732;SDS011;68056;52.530;5.454;2024-01-27T06:24:31;5.25;;;1.45;;
78732;SDS011;68056;52.530;5.454;2024-01-27T06:26:56;7.85;;;2.33;;
78732;SDS011;68056;52.530;5.454;2024-01-27T06:29:22;7.15;;;1.63;;
78732;SDS011;68056;52.530;5.454;2024-01-27T06:31:48;7.07;;;1.90;;
78732;SDS011;68056;52.530;5.454;2024-01-27T06:34:13;6.22;;;1.83;;
78732;SDS011;68056;52.530;5.454;2024-01-27T06:36:39;11.02;;;2.22;;
78732;SDS011;68056;52.530;5.454;2024-01-27T06:39:04;6.55;;;1.83;;
78732;SDS011;68056;52.530;5.454;2024-01-27T06:41:30;5.80;;;1.80;;
78732;SDS011;68056;52.530;5.454;2024-01-27T06:43:55;6.43;;;1.95;;
78732;SDS011;68056;52.530;5.454;2024-01-27T06:46:22;5.68;;;2.40;;
78732;SDS011;68056;52.530;5.454;2024-01-27T06:48:47;5.60;;;2.35;;
78732;SDS011;68056;52.530;5.454;2024-01-27T06:51:13;7.90;;;2.58;;
78732;SDS011;68056;52.530;5.454;2024-01-27T06:53:38;6.63;;;2.13;;
78732;SDS011;68056;52.530;5.454;2024-01-27T06:56:04;4.10;;;1.88;;
78732;SDS011;68056;52.530;5.454;2024-01-27T06:58:30;7.38;;;2.38;;
78732;SDS011;68056;52.530;5.454;2024-01-27T07:00:55;10.60;;;2.25;;
78732;SDS011;68056;52.530;5.454;2024-01-27T07:03:21;4.82;;;2.25;;
78732;SDS011;68056;52.530;5.454;2024-01-27T07:05:47;7.38;;;2.03;;
78732;SDS011;68056;52.530;5.454;2024-01-27T07:08:13;12.60;;;3.65;;
78732;SDS011;68056;52.530;5.454;2024-01-27T07:10:38;4.60;;;1.92;;
78732;SDS011;68056;52.530;5.454;2024-01-27T07:13:05;9.55;;;2.83;;
78732;SDS011;68056;52.530;5.454;2024-01-27T07:15:31;8.27;;;3.35;;
78732;SDS011;68056;52.530;5.454;2024-01-27T07:17:56;6.68;;;2.45;;
78732;SDS011;68056;52.530;5.454;2024-01-27T07:20:22;6.82;;;2.53;;
78732;SDS011;68056;52.530;5.454;2024-01-27T07:22:49;7.82;;;2.72;;
78732;SDS011;68056;52.530;5.454;2024-01-27T07:25:15;8.80;;;3.00;;
78732;SDS011;68056;52.530;5.454;2024-01-27T07:27:41;10.43;;;2.92;;
78732;SDS011;68056;52.530;5.454;2024-01-27T07:30:09;6.90;;;3.00;;
78732;SDS011;68056;52.530;5.454;2024-01-27T07:32:42;12.05;;;3.22;;
78732;SDS011;68056;52.530;5.454;2024-01-27T07:35:15;11.55;;;3.05;;
78732;SDS011;68056;52.530;5.454;2024-01-27T07:37:50;6.57;;;3.17;;
78732;SDS011;68056;52.530;5.454;2024-01-27T07:40:24;5.88;;;2.55;;
78732;SDS011;68056;52.530;5.454;2024-01-27T07:43:01;6.20;;;3.00;;
78732;SDS011;68056;52.530;5.454;2024-01-27T07:45:37;7.22;;;3.33;;
78732;SDS011;68056;52.530;5.454;2024-01-27T07:48:03;6.30;;;2.78;;
78732;SDS011;68056;52.530;5.454;2024-01-27T07:50:29;7.45;;;3.10;;
78732;SDS011;68056;52.530;5.454;2024-01-27T07:52:54;5.93;;;2.85;;
78732;SDS011;68056;52.530;5.454;2024-01-27T07:55:20;10.63;;;3.83;;
78732;SDS011;68056;52.530;5.454;2024-01-27T07:57:46;4.57;;;2.60;;
78732;SDS011;68056;52.530;5.454;2024-01-27T08:00:11;9.23;;;3.28;;
78732;SDS011;68056;52.530;5.454;2024-01-27T08:02:37;5.47;;;2.78;;
78732;SDS011;68056;52.530;5.454;2024-01-27T08:05:03;6.93;;;3.08;;
78732;SDS011;68056;52.530;5.454;2024-01-27T08:07:29;6.97;;;2.33;;
78732;SDS011;68056;52.530;5.454;2024-01-27T08:09:55;7.25;;;2.60;;
78732;SDS011;68056;52.530;5.454;2024-01-27T08:12:22;9.75;;;3.65;;
78732;SDS011;68056;52.530;5.454;2024-01-27T08:14:47;11.57;;;3.40;;
78732;SDS011;68056;52.530;5.454;2024-01-27T08:17:13;6.47;;;3.08;;
78732;SDS011;68056;52.530;5.454;2024-01-27T08:19:39;9.63;;;3.72;;
78732;SDS011;68056;52.530;5.454;2024-01-27T08:22:04;9.35;;;3.47;;
78732;SDS011;68056;52.530;5.454;2024-01-27T08:24:30;8.20;;;3.53;;
78732;SDS011;68056;52.530;5.454;2024-01-27T08:26:55;5.60;;;3.08;;
78732;SDS011;68056;52.530;5.454;2024-01-27T08:29:21;9.45;;;3.08;;
78732;SDS011;68056;52.530;5.454;2024-01-27T08:31:47;5.45;;;2.67;;
78732;SDS011;68056;52.530;5.454;2024-01-27T08:34:13;8.20;;;2.92;;
78732;SDS011;68056;52.530;5.454;2024-01-27T08:36:39;10.65;;;3.25;;
78732;SDS011;68056;52.530;5.454;2024-01-27T08:39:04;10.40;;;3.20;;
78732;SDS011;68056;52.530;5.454;2024-01-27T08:41:32;9.02;;;3.13;;
78732;SDS011;68056;52.530;5.454;2024-01-27T08:43:58;9.43;;;3.22;;
78732;SDS011;68056;52.530;5.454;2024-01-27T08:46:23;7.13;;;2.88;;
78732;SDS011;68056;52.530;5.454;2024-01-27T08:48:49;5.57;;;3.05;;
78732;SDS011;68056;52.530;5.454;2024-01-27T08:51:15;8.18;;;2.97;;
78732;SDS011;68056;52.530;5.454;2024-01-27T08:53:41;6.25;;;2.95;;
78732;SDS011;68056;52.530;5.454;2024-01-27T08:56:13;8.15;;;2.92;;
78732;SDS011;68056;52.530;5.454;2024-01-27T08:58:45;12.90;;;4.18;;
78732;SDS011;68056;52.530;5.454;2024-01-27T09:01:12;11.82;;;3.72;;
78732;SDS011;68056;52.530;5.454;2024-01-27T09:03:40;6.43;;;2.53;;
78732;SDS011;68056;52.530;5.454;2024-01-27T09:06:06;7.40;;;2.90;;
78732;SDS011;68056;52.530;5.454;2024-01-27T09:08:35;5.72;;;2.80;;
78732;SDS011;68056;52.530;5.454;2024-01-27T09:11:03;6.15;;;2.70;;
78732;SDS011;68056;52.530;5.454;2024-01-27T09:13:29;7.43;;;2.60;;
78732;SDS011;68056;52.530;5.454;2024-01-27T09:15:55;3.65;;;2.42;;
78732;SDS011;68056;52.530;5.454;2024-01-27T09:20:48;6.70;;;2.90;;
78732;SDS011;68056;52.530;5.454;2024-01-27T09:23:13;6.78;;;2.65;;
78732;SDS011;68056;52.530;5.454;2024-01-27T09:25:39;7.00;;;3.50;;
78732;SDS011;68056;52.530;5.454;2024-01-27T09:28:05;7.50;;;3.50;;
78732;SDS011;68056;52.530;5.454;2024-01-27T09:30:31;5.80;;;3.22;;
78732;SDS011;68056;52.530;5.454;2024-01-27T09:32:56;5.25;;;2.55;;
78732;SDS011;68056;52.530;5.454;2024-01-27T09:35:22;4.10;;;2.15;;
78732;SDS011;68056;52.530;5.454;2024-01-27T09:37:47;8.18;;;2.40;;
78732;SDS011;68056;52.530;5.454;2024-01-27T09:40:13;8.48;;;3.33;;
78732;SDS011;68056;52.530;5.454;2024-01-27T09:42:38;10.23;;;2.53;;
78732;SDS011;68056;52.530;5.454;2024-01-27T09:45:08;9.05;;;2.92;;
78732;SDS011;68056;52.530;5.454;2024-01-27T09:47:35;4.82;;;2.53;;
78732;SDS011;68056;52.530;5.454;2024-01-27T09:50:01;5.05;;;2.33;;
78732;SDS011;68056;52.530;5.454;2024-01-27T09:52:27;8.55;;;2.60;;
78732;SDS011;68056;52.530;5.454;2024-01-27T09:54:53;7.20;;;2.75;;
78732;SDS011;68056;52.530;5.454;2024-01-27T09:57:18;9.55;;;3.08;;
78732;SDS011;68056;52.530;5.454;2024-01-27T09:59:46;4.60;;;2.35;;
78732;SDS011;68056;52.530;5.454;2024-01-27T10:02:14;5.38;;;2.95;;
78732;SDS011;68056;52.530;5.454;2024-01-27T10:04:42;8.02;;;3.03;;
78732;SDS011;68056;52.530;5.454;2024-01-27T10:07:10;6.00;;;2.67;;
78732;SDS011;68056;52.530;5.454;2024-01-27T10:09:36;4.63;;;2.53;;
78732;SDS011;68056;52.530;5.454;2024-01-27T10:12:02;8.57;;;2.85;;
78732;SDS011;68056;52.530;5.454;2024-01-27T10:14:38;7.18;;;2.83;;
78732;SDS011;68056;52.530;5.454;2024-01-27T10:17:05;4.32;;;2.45;;
78732;SDS011;68056;52.530;5.454;2024-01-27T10:19:30;6.47;;;2.67;;
78732;SDS011;68056;52.530;5.454;2024-01-27T10:22:02;7.68;;;2.72;;
78732;SDS011;68056;52.530;5.454;2024-01-27T10:24:28;8.18;;;2.53;;
78732;SDS011;68056;52.530;5.454;2024-01-27T10:27:00;4.72;;;2.80;;
78732;SDS011;68056;52.530;5.454;2024-01-27T10:29:29;5.75;;;2.50;;
78732;SDS011;68056;52.530;5.454;2024-01-27T10:32:09;7.35;;;3.08;;
78732;SDS011;68056;52.530;5.454;2024-01-27T10:34:36;9.40;;;2.72;;
78732;SDS011;68056;52.530;5.454;2024-01-27T10:37:01;9.57;;;3.30;;
78732;SDS011;68056;52.530;5.454;2024-01-27T10:39:27;9.35;;;3.63;;
78732;SDS011;68056;52.530;5.454;2024-01-27T10:41:53;9.77;;;3.05;;
78732;SDS011;68056;52.530;5.454;2024-01-27T10:44:19;5.55;;;2.65;;
78732;SDS011;68056;52.530;5.454;2024-01-27T10:46:46;6.95;;;2.13;;
78732;SDS011;68056;52.530;5.454;2024-01-27T10:51:42;8.20;;;2.92;;
78732;SDS011;68056;52.530;5.454;2024-01-27T10:54:12;8.05;;;3.35;;
78732;SDS011;68056;52.530;5.454;2024-01-27T10:56:39;7.07;;;2.70;;
78732;SDS011;68056;52.530;5.454;2024-01-27T10:59:07;6.78;;;2.92;;
78732;SDS011;68056;52.530;5.454;2024-01-27T11:01:36;12.75;;;3.20;;
78732;SDS011;68056;52.530;5.454;2024-01-27T11:04:04;5.40;;;2.50;;
78732;SDS011;68056;52.530;5.454;2024-01-27T11:06:32;5.15;;;2.53;;
78732;SDS011;68056;52.530;5.454;2024-01-27T11:08:59;5.43;;;2.50;;
78732;SDS011;68056;52.530;5.454;2024-01-27T11:11:28;6.25;;;2.85;;
78732;SDS011;68056;52.530;5.454;2024-01-27T11:13:54;4.72;;;2.35;;
78732;SDS011;68056;52.530;5.454;2024-01-27T11:16:20;6.07;;;2.75;;
78732;SDS011;68056;52.530;5.454;2024-01-27T11:18:48;5.15;;;2.80;;
78732;SDS011;68056;52.530;5.454;2024-01-27T11:21:14;9.38;;;2.83;;
78732;SDS011;68056;52.530;5.454;2024-01-27T11:23:44;7.88;;;2.58;;
78732;SDS011;68056;52.530;5.454;2024-01-27T11:26:16;3.65;;;2.20;;
78732;SDS011;68056;52.530;5.454;2024-01-27T11:28:46;9.18;;;3.33;;
78732;SDS011;68056;52.530;5.454;2024-01-27T11:31:12;7.95;;;2.45;;
78732;SDS011;68056;52.530;5.454;2024-01-27T11:33:43;7.57;;;2.80;;
78732;SDS011;68056;52.530;5.454;2024-01-27T11:36:18;7.38;;;2.88;;
78732;SDS011;68056;52.530;5.454;2024-01-27T11:38:48;7.43;;;2.75;;
78732;SDS011;68056;52.530;5.454;2024-01-27T11:41:24;6.50;;;2.90;;
78732;SDS011;68056;52.530;5.454;2024-01-27T11:43:54;8.15;;;2.42;;
78732;SDS011;68056;52.530;5.454;2024-01-27T11:46:20;11.27;;;3.75;;
78732;SDS011;68056;52.530;5.454;2024-01-27T11:48:50;6.82;;;2.95;;
78732;SDS011;68056;52.530;5.454;2024-01-27T11:51:15;8.30;;;2.70;;
78732;SDS011;68056;52.530;5.454;2024-01-27T11:53:43;7.20;;;2.75;;
78732;SDS011;68056;52.530;5.454;2024-01-27T11:56:10;4.82;;;2.13;;
78732;SDS011;68056;52.530;5.454;2024-01-27T11:58:35;7.30;;;3.10;;
78732;SDS011;68056;52.530;5.454;2024-01-27T12:01:01;8.75;;;2.85;;
78732;SDS011;68056;52.530;5.454;2024-01-27T12:03:27;7.88;;;2.67;;
78732;SDS011;68056;52.530;5.454;2024-01-27T12:05:53;10.65;;;5.05;;
78732;SDS011;68056;52.530;5.454;2024-01-27T12:08:19;8.73;;;2.70;;
78732;SDS011;68056;52.530;5.454;2024-01-27T12:10:45;6.75;;;3.25;;
78732;SDS011;68056;52.530;5.454;2024-01-27T12:13:11;5.75;;;2.53;;
78732;SDS011;68056;52.530;5.454;2024-01-27T12:15:36;6.05;;;2.90;;
78732;SDS011;68056;52.530;5.454;2024-01-27T12:18:04;5.53;;;2.30;;
78732;SDS011;68056;52.530;5.454;2024-01-27T12:20:33;12.52;;;2.95;;
78732;SDS011;68056;52.530;5.454;2024-01-27T12:23:05;8.52;;;3.05;;
78732;SDS011;68056;52.530;5.454;2024-01-27T12:25:31;3.63;;;2.15;;
78732;SDS011;68056;52.530;5.454;2024-01-27T12:28:01;6.40;;;2.50;;
78732;SDS011;68056;52.530;5.454;2024-01-27T12:30:33;6.93;;;3.22;;
78732;SDS011;68056;52.530;5.454;2024-01-27T12:32:59;5.13;;;2.38;;
78732;SDS011;68056;52.530;5.454;2024-01-27T12:35:34;6.57;;;2.60;;
78732;SDS011;68056;52.530;5.454;2024-01-27T12:38:00;8.35;;;2.72;;
78732;SDS011;68056;52.530;5.454;2024-01-27T12:40:27;6.80;;;2.67;;
78732;SDS011;68056;52.530;5.454;2024-01-27T12:42:52;7.47;;;2.70;;
78732;SDS011;68056;52.530;5.454;2024-01-27T12:45:18;7.07;;;3.38;;
78732;SDS011;68056;52.530;5.454;2024-01-27T12:47:44;5.30;;;3.05;;
78732;SDS011;68056;52.530;5.454;2024-01-27T12:50:10;7.75;;;2.78;;
78732;SDS011;68056;52.530;5.454;2024-01-27T12:52:36;6.53;;;2.42;;
78732;SDS011;68056;52.530;5.454;2024-01-27T12:55:02;6.68;;;2.45;;
78732;SDS011;68056;52.530;5.454;2024-01-27T12:57:28;5.97;;;2.65;;
78732;SDS011;68056;52.530;5.454;2024-01-27T12:59:54;5.22;;;2.42;;
78732;SDS011;68056;52.530;5.454;2024-01-27T13:02:22;6.45;;;2.70;;
78732;SDS011;68056;52.530;5.454;2024-01-27T13:04:48;4.82;;;2.55;;
78732;SDS011;68056;52.530;5.454;2024-01-27T13:07:14;6.20;;;2.50;;
78732;SDS011;68056;52.530;5.454;2024-01-27T13:09:39;8.40;;;2.20;;
78732;SDS011;68056;52.530;5.454;2024-01-27T13:12:05;7.15;;;2.97;;
78732;SDS011;68056;52.530;5.454;2024-01-27T13:14:31;10.65;;;2.63;;
78732;SDS011;68056;52.530;5.454;2024-01-27T13:16:56;5.70;;;2.20;;
78732;SDS011;68056;52.530;5.454;2024-01-27T13:19:24;7.40;;;2.28;;
78732;SDS011;68056;52.530;5.454;2024-01-27T13:21:50;5.75;;;2.20;;
78732;SDS011;68056;52.530;5.454;2024-01-27T13:24:16;6.57;;;2.03;;
78732;SDS011;68056;52.530;5.454;2024-01-27T13:26:52;5.22;;;2.10;;
78732;SDS011;68056;52.530;5.454;2024-01-27T13:29:17;9.13;;;2.70;;
78732;SDS011;68056;52.530;5.454;2024-01-27T13:31:43;3.50;;;1.90;;
78732;SDS011;68056;52.530;5.454;2024-01-27T13:34:08;6.13;;;2.17;;
78732;SDS011;68056;52.530;5.454;2024-01-27T13:36:34;7.55;;;1.98;;
78732;SDS011;68056;52.530;5.454;2024-01-27T13:39:00;5.30;;;2.20;;
78732;SDS011;68056;52.530;5.454;2024-01-27T13:41:26;7.15;;;2.10;;
78732;SDS011;68056;52.530;5.454;2024-01-27T13:43:52;5.72;;;1.80;;
78732;SDS011;68056;52.530;5.454;2024-01-27T13:46:18;5.30;;;2.00;;
78732;SDS011;68056;52.530;5.454;2024-01-27T13:48:44;5.60;;;1.80;;
78732;SDS011;68056;52.530;5.454;2024-01-27T13:51:10;4.07;;;1.73;;
78732;SDS011;68056;52.530;5.454;2024-01-27T13:53:36;5.75;;;2.15;;
78732;SDS011;68056;52.530;5.454;2024-01-27T13:56:02;9.18;;;2.10;;
78732;SDS011;68056;52.530;5.454;2024-01-27T13:58:29;3.33;;;2.13;;
78732;SDS011;68056;52.530;5.454;2024-01-27T14:00:54;6.07;;;2.03;;
78732;SDS011;68056;52.530;5.454;2024-01-27T14:03:20;5.30;;;1.77;;
78732;SDS011;68056;52.530;5.454;2024-01-27T14:05:46;3.25;;;1.73;;
78732;SDS011;68056;52.530;5.454;2024-01-27T14:08:12;8.38;;;2.35;;
78732;SDS011;68056;52.530;5.454;2024-01-27T14:10:38;4.22;;;1.85;;
78732;SDS011;68056;52.530;5.454;2024-01-27T14:13:04;6.60;;;2.25;;
78732;SDS011;68056;52.530;5.454;2024-01-27T14:15:34;4.53;;;1.85;;
78732;SDS011;68056;52.530;5.454;2024-01-27T14:18:00;4.07;;;1.75;;
78732;SDS011;68056;52.530;5.454;2024-01-27T14:20:26;8.85;;;2.15;;
78732;SDS011;68056;52.530;5.454;2024-01-27T14:22:54;8.23;;;2.33;;
78732;SDS011;68056;52.530;5.454;2024-01-27T14:25:20;4.95;;;2.17;;
78732;SDS011;68056;52.530;5.454;2024-01-27T14:27:45;8.20;;;2.47;;
78732;SDS011;68056;52.530;5.454;2024-01-27T14:30:11;5.00;;;1.90;;
78732;SDS011;68056;52.530;5.454;2024-01-27T14:32:38;6.68;;;2.03;;
78732;SDS011;68056;52.530;5.454;2024-01-27T14:35:04;6.25;;;1.83;;
78732;SDS011;68056;52.530;5.454;2024-01-27T14:39:57;4.43;;;1.77;;
78732;SDS011;68056;52.530;5.454;2024-01-27T14:42:22;5.22;;;2.20;;
78732;SDS011;68056;52.530;5.454;2024-01-27T14:44:48;6.43;;;1.77;;
78732;SDS011;68056;52.530;5.454;2024-01-27T14:47:20;3.92;;;2.50;;
78732;SDS011;68056;52.530;5.454;2024-01-27T14:49:46;4.10;;;1.70;;
78732;SDS011;68056;52.530;5.454;2024-01-27T14:52:11;5.82;;;2.15;;
78732;SDS011;68056;52.530;5.454;2024-01-27T14:54:37;5.07;;;1.65;;